sensor_id;sensor_type;location;lat;lon;timestamp;P1;durP1;ratioP1;P2;durP2;ratioP2
15110;SDS011;7656;51.954;7.998;2023-02-18T00:01:30;12.70;;;8.03;;
15110;SDS011;7656;51.954;7.998;2023-02-18T00:05:51;12.60;;;8.93;;
15110;SDS011;7656;51.954;7.998;2023-02-18T00:10:13;13.37;;;7.80;;
15110;SDS011;7656;51.954;7.998;2023-02-18T00:14:35;15.13;;;8.50;;
15110;SDS011;7656;51.954;7.998;2023-02-18T00:18:57;12.77;;;7.97;;
15110;SDS011;7656;51.954;7.998;2023-02-18T00:23:20;15.63;;;9.20;;
15110;SDS011;7656;51.954;7.998;2023-02-18T00:27:41;13.67;;;8.60;;
15110;SDS011;7656;51.954;7.998;2023-02-18T00:32:02;18.80;;;9.53;;
15110;SDS011;7656;51.954;7.998;2023-02-18T00:36:24;19.67;;;9.30;;
15110;SDS011;7656;51.954;7.998;2023-02-18T00:40:46;18.63;;;10.37;;
15110;SDS011;7656;51.954;7.998;2023-02-18T00:45:08;15.30;;;9.63;;
15110;SDS011;7656;51.954;7.998;2023-02-18T00:49:29;15.87;;;10.23;;
15110;SDS011;7656;51.954;7.998;2023-02-18T00:53:50;14.87;;;10.10;;
15110;SDS011;7656;51.954;7.998;2023-02-18T00:58:13;18.20;;;10.60;;
15110;SDS011;7656;51.954;7.998;2023-02-18T01:02:35;14.83;;;10.33;;
15110;SDS011;7656;51.954;7.998;2023-02-18T01:06:56;17.47;;;10.47;;
15110;SDS011;7656;51.954;7.998;2023-02-18T01:11:17;15.77;;;10.03;;
15110;SDS011;7656;51.954;7.998;2023-02-18T01:15:39;19.60;;;10.83;;
15110;SDS011;7656;51.954;7.998;2023-02-18T01:20:04;15.97;;;10.67;;
15110;SDS011;7656;51.954;7.998;2023-02-18T01:24:28;18.73;;;11.60;;
15110;SDS011;7656;51.954;7.998;2023-02-18T01:28:49;20.07;;;11.57;;
15110;SDS011;7656;51.954;7.998;2023-02-18T01:33:10;19.03;;;11.63;;
15110;SDS011;7656;51.954;7.998;2023-02-18T01:37:32;21.30;;;10.87;;
15110;SDS011;7656;51.954;7.998;2023-02-18T01:41:53;16.77;;;11.80;;
15110;SDS011;7656;51.954;7.998;2023-02-18T01:50:41;17.53;;;10.80;;
15110;SDS011;7656;51.954;7.998;2023-02-18T01:55:05;14.17;;;9.80;;
15110;SDS011;7656;51.954;7.998;2023-02-18T01:59:30;17.57;;;11.87;;
15110;SDS011;7656;51.954;7.998;2023-02-18T02:03:56;17.17;;;10.90;;
15110;SDS011;7656;51.954;7.998;2023-02-18T02:08:17;22.30;;;11.60;;
15110;SDS011;7656;51.954;7.998;2023-02-18T02:17:27;20.30;;;11.47;;
15110;SDS011;7656;51.954;7.998;2023-02-18T02:26:49;19.70;;;12.20;;
15110;SDS011;7656;51.954;7.998;2023-02-18T02:31:38;20.33;;;11.40;;
15110;SDS011;7656;51.954;7.998;2023-02-18T02:36:24;21.17;;;12.47;;
15110;SDS011;7656;51.954;7.998;2023-02-18T02:41:01;22.87;;;11.97;;
15110;SDS011;7656;51.954;7.998;2023-02-18T02:46:08;22.03;;;12.23;;
15110;SDS011;7656;51.954;7.998;2023-02-18T02:50:43;22.60;;;13.20;;
15110;SDS011;7656;51.954;7.998;2023-02-18T02:55:22;20.03;;;12.40;;
15110;SDS011;7656;51.954;7.998;2023-02-18T02:59:48;19.73;;;11.30;;
15110;SDS011;7656;51.954;7.998;2023-02-18T03:04:34;19.57;;;10.27;;
15110;SDS011;7656;51.954;7.998;2023-02-18T03:09:38;19.07;;;11.13;;
15110;SDS011;7656;51.954;7.998;2023-02-18T03:14:28;19.33;;;10.07;;
15110;SDS011;7656;51.954;7.998;2023-02-18T03:23:45;13.80;;;10.10;;
15110;SDS011;7656;51.954;7.998;2023-02-18T03:28:17;16.27;;;9.57;;
15110;SDS011;7656;51.954;7.998;2023-02-18T03:32:41;14.10;;;8.83;;
15110;SDS011;7656;51.954;7.998;2023-02-18T03:37:05;11.37;;;7.60;;
15110;SDS011;7656;51.954;7.998;2023-02-18T03:41:28;12.23;;;8.13;;
15110;SDS011;7656;51.954;7.998;2023-02-18T03:45:50;12.63;;;8.70;;
15110;SDS011;7656;51.954;7.998;2023-02-18T03:50:13;13.23;;;8.87;;
15110;SDS011;7656;51.954;7.998;2023-02-18T03:54:34;12.43;;;8.70;;
15110;SDS011;7656;51.954;7.998;2023-02-18T03:58:55;12.23;;;8.40;;
15110;SDS011;7656;51.954;7.998;2023-02-18T04:03:16;16.40;;;10.07;;
15110;SDS011;7656;51.954;7.998;2023-02-18T04:07:37;16.17;;;10.17;;
15110;SDS011;7656;51.954;7.998;2023-02-18T04:11:58;17.60;;;10.27;;
15110;SDS011;7656;51.954;7.998;2023-02-18T04:16:19;14.83;;;9.10;;
15110;SDS011;7656;51.954;7.998;2023-02-18T04:20:41;15.83;;;8.93;;
15110;SDS011;7656;51.954;7.998;2023-02-18T04:25:02;12.67;;;7.33;;
15110;SDS011;7656;51.954;7.998;2023-02-18T04:29:23;10.30;;;6.87;;
15110;SDS011;7656;51.954;7.998;2023-02-18T04:33:44;10.17;;;6.80;;
15110;SDS011;7656;51.954;7.998;2023-02-18T04:38:08;12.07;;;8.30;;
15110;SDS011;7656;51.954;7.998;2023-02-18T04:42:30;10.77;;;7.60;;
15110;SDS011;7656;51.954;7.998;2023-02-18T04:46:51;15.47;;;9.80;;
15110;SDS011;7656;51.954;7.998;2023-02-18T04:51:12;16.63;;;10.00;;
15110;SDS011;7656;51.954;7.998;2023-02-18T04:55:33;14.83;;;10.77;;
15110;SDS011;7656;51.954;7.998;2023-02-18T04:59:54;17.47;;;10.70;;
15110;SDS011;7656;51.954;7.998;2023-02-18T05:04:15;17.33;;;11.07;;
15110;SDS011;7656;51.954;7.998;2023-02-18T05:08:38;19.90;;;11.70;;
15110;SDS011;7656;51.954;7.998;2023-02-18T05:12:59;19.83;;;12.63;;
15110;SDS011;7656;51.954;7.998;2023-02-18T05:17:20;19.27;;;12.00;;
15110;SDS011;7656;51.954;7.998;2023-02-18T05:21:42;19.13;;;11.03;;
15110;SDS011;7656;51.954;7.998;2023-02-18T05:26:03;15.93;;;10.83;;
15110;SDS011;7656;51.954;7.998;2023-02-18T05:30:24;18.40;;;11.20;;
15110;SDS011;7656;51.954;7.998;2023-02-18T05:34:45;16.47;;;10.53;;
15110;SDS011;7656;51.954;7.998;2023-02-18T05:39:06;17.47;;;10.17;;
15110;SDS011;7656;51.954;7.998;2023-02-18T05:43:27;19.70;;;12.17;;
15110;SDS011;7656;51.954;7.998;2023-02-18T05:47:48;17.87;;;10.50;;
15110;SDS011;7656;51.954;7.998;2023-02-18T05:52:10;15.60;;;10.40;;
15110;SDS011;7656;51.954;7.998;2023-02-18T05:56:32;15.00;;;9.90;;
15110;SDS011;7656;51.954;7.998;2023-02-18T06:00:53;15.47;;;9.87;;
15110;SDS011;7656;51.954;7.998;2023-02-18T06:05:14;13.70;;;9.67;;
15110;SDS011;7656;51.954;7.998;2023-02-18T06:09:35;11.23;;;8.03;;
15110;SDS011;7656;51.954;7.998;2023-02-18T06:13:56;12.13;;;8.43;;
15110;SDS011;7656;51.954;7.998;2023-02-18T06:18:18;12.93;;;7.80;;
15110;SDS011;7656;51.954;7.998;2023-02-18T06:22:39;11.50;;;7.87;;
15110;SDS011;7656;51.954;7.998;2023-02-18T06:27:00;9.80;;;6.73;;
15110;SDS011;7656;51.954;7.998;2023-02-18T06:31:21;9.93;;;7.20;;
15110;SDS011;7656;51.954;7.998;2023-02-18T06:35:51;9.30;;;6.70;;
15110;SDS011;7656;51.954;7.998;2023-02-18T06:40:18;9.10;;;5.90;;
15110;SDS011;7656;51.954;7.998;2023-02-18T06:44:39;8.80;;;6.47;;
15110;SDS011;7656;51.954;7.998;2023-02-18T06:49:00;6.90;;;5.67;;
15110;SDS011;7656;51.954;7.998;2023-02-18T06:53:21;8.50;;;5.73;;
15110;SDS011;7656;51.954;7.998;2023-02-18T06:57:42;5.83;;;4.57;;
15110;SDS011;7656;51.954;7.998;2023-02-18T07:02:03;5.20;;;4.70;;
15110;SDS011;7656;51.954;7.998;2023-02-18T07:06:24;5.07;;;4.53;;
15110;SDS011;7656;51.954;7.998;2023-02-18T07:10:45;4.77;;;4.37;;
15110;SDS011;7656;51.954;7.998;2023-02-18T07:15:07;5.47;;;4.67;;
15110;SDS011;7656;51.954;7.998;2023-02-18T07:19:29;5.13;;;4.57;;
15110;SDS011;7656;51.954;7.998;2023-02-18T07:23:50;4.17;;;3.77;;
15110;SDS011;7656;51.954;7.998;2023-02-18T07:28:11;4.83;;;4.33;;
15110;SDS011;7656;51.954;7.998;2023-02-18T07:32:33;4.10;;;3.70;;
15110;SDS011;7656;51.954;7.998;2023-02-18T07:36:54;3.93;;;3.33;;
15110;SDS011;7656;51.954;7.998;2023-02-18T07:41:16;4.03;;;3.63;;
15110;SDS011;7656;51.954;7.998;2023-02-18T07:45:42;4.10;;;3.30;;
15110;SDS011;7656;51.954;7.998;2023-02-18T07:50:04;4.93;;;3.90;;
15110;SDS011;7656;51.954;7.998;2023-02-18T07:54:26;3.77;;;3.00;;
15110;SDS011;7656;51.954;7.998;2023-02-18T07:58:47;3.53;;;3.00;;
15110;SDS011;7656;51.954;7.998;2023-02-18T08:03:08;4.70;;;2.63;;
15110;SDS011;7656;51.954;7.998;2023-02-18T08:07:29;2.33;;;2.13;;
15110;SDS011;7656;51.954;7.998;2023-02-18T08:11:51;2.40;;;2.20;;
15110;SDS011;7656;51.954;7.998;2023-02-18T08:16:12;3.27;;;2.60;;
15110;SDS011;7656;51.954;7.998;2023-02-18T08:20:37;2.50;;;2.30;;
15110;SDS011;7656;51.954;7.998;2023-02-18T08:24:58;2.07;;;1.87;;
15110;SDS011;7656;51.954;7.998;2023-02-18T08:29:19;1.97;;;1.87;;
15110;SDS011;7656;51.954;7.998;2023-02-18T08:33:40;2.87;;;1.97;;
15110;SDS011;7656;51.954;7.998;2023-02-18T08:38:01;1.90;;;1.80;;
15110;SDS011;7656;51.954;7.998;2023-02-18T08:42:22;2.20;;;1.90;;
15110;SDS011;7656;51.954;7.998;2023-02-18T08:46:43;2.27;;;2.00;;
15110;SDS011;7656;51.954;7.998;2023-02-18T08:51:16;2.77;;;2.37;;
15110;SDS011;7656;51.954;7.998;2023-02-18T08:55:40;3.03;;;2.30;;
15110;SDS011;7656;51.954;7.998;2023-02-18T09:00:02;5.73;;;2.57;;
15110;SDS011;7656;51.954;7.998;2023-02-18T09:04:25;5.60;;;2.90;;
15110;SDS011;7656;51.954;7.998;2023-02-18T09:08:46;2.80;;;2.50;;
15110;SDS011;7656;51.954;7.998;2023-02-18T09:13:07;3.13;;;2.83;;
15110;SDS011;7656;51.954;7.998;2023-02-18T09:17:28;3.27;;;2.83;;
15110;SDS011;7656;51.954;7.998;2023-02-18T09:21:49;2.70;;;2.50;;
15110;SDS011;7656;51.954;7.998;2023-02-18T09:26:13;2.20;;;2.00;;
15110;SDS011;7656;51.954;7.998;2023-02-18T09:30:37;3.00;;;2.77;;
15110;SDS011;7656;51.954;7.998;2023-02-18T09:34:59;2.83;;;2.53;;
15110;SDS011;7656;51.954;7.998;2023-02-18T09:39:21;2.20;;;2.00;;
15110;SDS011;7656;51.954;7.998;2023-02-18T09:43:43;2.07;;;1.87;;
15110;SDS011;7656;51.954;7.998;2023-02-18T09:48:08;1.90;;;1.73;;
15110;SDS011;7656;51.954;7.998;2023-02-18T09:52:31;1.90;;;1.80;;
15110;SDS011;7656;51.954;7.998;2023-02-18T09:56:56;2.30;;;2.00;;
15110;SDS011;7656;51.954;7.998;2023-02-18T10:01:32;2.23;;;1.87;;
15110;SDS011;7656;51.954;7.998;2023-02-18T10:10:31;2.80;;;2.60;;
15110;SDS011;7656;51.954;7.998;2023-02-18T10:15:06;3.70;;;2.93;;
15110;SDS011;7656;51.954;7.998;2023-02-18T10:19:37;3.20;;;2.67;;
15110;SDS011;7656;51.954;7.998;2023-02-18T10:24:03;2.50;;;2.30;;
15110;SDS011;7656;51.954;7.998;2023-02-18T10:28:45;2.70;;;2.50;;
15110;SDS011;7656;51.954;7.998;2023-02-18T10:52:24;3.47;;;2.90;;
15110;SDS011;7656;51.954;7.998;2023-02-18T10:56:50;3.37;;;2.97;;
15110;SDS011;7656;51.954;7.998;2023-02-18T11:01:19;3.70;;;3.00;;
15110;SDS011;7656;51.954;7.998;2023-02-18T11:05:41;3.20;;;2.30;;
15110;SDS011;7656;51.954;7.998;2023-02-18T11:10:17;3.77;;;2.90;;
15110;SDS011;7656;51.954;7.998;2023-02-18T11:19:39;5.90;;;2.67;;
15110;SDS011;7656;51.954;7.998;2023-02-18T11:24:14;4.17;;;2.87;;
15110;SDS011;7656;51.954;7.998;2023-02-18T11:28:44;3.83;;;3.00;;
15110;SDS011;7656;51.954;7.998;2023-02-18T11:33:09;2.80;;;2.57;;
15110;SDS011;7656;51.954;7.998;2023-02-18T11:37:39;3.13;;;2.63;;
15110;SDS011;7656;51.954;7.998;2023-02-18T11:42:02;3.27;;;2.30;;
15110;SDS011;7656;51.954;7.998;2023-02-18T11:46:25;2.50;;;2.20;;
15110;SDS011;7656;51.954;7.998;2023-02-18T11:50:51;2.43;;;2.20;;
15110;SDS011;7656;51.954;7.998;2023-02-18T11:55:20;2.13;;;1.90;;
15110;SDS011;7656;51.954;7.998;2023-02-18T11:59:46;2.10;;;1.90;;
15110;SDS011;7656;51.954;7.998;2023-02-18T12:04:11;2.53;;;2.20;;
15110;SDS011;7656;51.954;7.998;2023-02-18T12:08:41;3.47;;;2.03;;
15110;SDS011;7656;51.954;7.998;2023-02-18T12:13:32;1.80;;;1.70;;
15110;SDS011;7656;51.954;7.998;2023-02-18T12:18:02;2.40;;;2.10;;
15110;SDS011;7656;51.954;7.998;2023-02-18T12:22:42;2.20;;;2.00;;
15110;SDS011;7656;51.954;7.998;2023-02-18T12:31:48;2.60;;;2.07;;
15110;SDS011;7656;51.954;7.998;2023-02-18T13:01:30;3.03;;;2.30;;
15110;SDS011;7656;51.954;7.998;2023-02-18T13:06:40;2.50;;;2.30;;
15110;SDS011;7656;51.954;7.998;2023-02-18T13:16:12;3.30;;;2.67;;
15110;SDS011;7656;51.954;7.998;2023-02-18T13:25:03;4.50;;;3.43;;
15110;SDS011;7656;51.954;7.998;2023-02-18T13:34:20;4.17;;;3.30;;
15110;SDS011;7656;51.954;7.998;2023-02-18T13:39:07;5.67;;;2.97;;
15110;SDS011;7656;51.954;7.998;2023-02-18T13:43:32;3.90;;;3.20;;
15110;SDS011;7656;51.954;7.998;2023-02-18T13:47:55;4.53;;;3.73;;
15110;SDS011;7656;51.954;7.998;2023-02-18T13:52:18;4.10;;;3.37;;
15110;SDS011;7656;51.954;7.998;2023-02-18T13:56:49;4.83;;;3.47;;
15110;SDS011;7656;51.954;7.998;2023-02-18T14:01:21;5.80;;;3.17;;
15110;SDS011;7656;51.954;7.998;2023-02-18T14:06:20;3.53;;;3.07;;
15110;SDS011;7656;51.954;7.998;2023-02-18T14:11:22;5.57;;;2.60;;
15110;SDS011;7656;51.954;7.998;2023-02-18T14:19:53;3.07;;;2.43;;
15110;SDS011;7656;51.954;7.998;2023-02-18T14:24:41;4.30;;;3.00;;
15110;SDS011;7656;51.954;7.998;2023-02-18T14:29:25;3.67;;;2.73;;
15110;SDS011;7656;51.954;7.998;2023-02-18T14:57:14;6.67;;;2.73;;
15110;SDS011;7656;51.954;7.998;2023-02-18T15:01:39;5.27;;;3.00;;
15110;SDS011;7656;51.954;7.998;2023-02-18T15:06:00;3.20;;;2.90;;
15110;SDS011;7656;51.954;7.998;2023-02-18T15:10:24;3.97;;;3.07;;
15110;SDS011;7656;51.954;7.998;2023-02-18T15:15:08;6.10;;;3.30;;
15110;SDS011;7656;51.954;7.998;2023-02-18T15:19:42;6.33;;;3.40;;
15110;SDS011;7656;51.954;7.998;2023-02-18T15:28:57;3.97;;;3.27;;
15110;SDS011;7656;51.954;7.998;2023-02-18T15:33:22;3.70;;;2.80;;
15110;SDS011;7656;51.954;7.998;2023-02-18T15:37:45;5.60;;;2.37;;
15110;SDS011;7656;51.954;7.998;2023-02-18T15:42:27;3.57;;;3.27;;
15110;SDS011;7656;51.954;7.998;2023-02-18T15:46:53;3.40;;;2.30;;
15110;SDS011;7656;51.954;7.998;2023-02-18T15:51:16;4.10;;;2.37;;
15110;SDS011;7656;51.954;7.998;2023-02-18T15:55:50;6.17;;;3.33;;
15110;SDS011;7656;51.954;7.998;2023-02-18T16:00:20;6.50;;;3.07;;
15110;SDS011;7656;51.954;7.998;2023-02-18T16:04:58;6.93;;;3.30;;
15110;SDS011;7656;51.954;7.998;2023-02-18T16:09:23;6.00;;;3.30;;
15110;SDS011;7656;51.954;7.998;2023-02-18T16:13:49;6.47;;;3.30;;
15110;SDS011;7656;51.954;7.998;2023-02-18T16:18:18;4.37;;;3.20;;
15110;SDS011;7656;51.954;7.998;2023-02-18T16:22:46;7.17;;;3.40;;
15110;SDS011;7656;51.954;7.998;2023-02-18T16:27:13;6.33;;;3.07;;
15110;SDS011;7656;51.954;7.998;2023-02-18T16:31:36;11.00;;;3.80;;
15110;SDS011;7656;51.954;7.998;2023-02-18T16:35:57;7.13;;;3.40;;
15110;SDS011;7656;51.954;7.998;2023-02-18T16:44:54;6.13;;;3.50;;
15110;SDS011;7656;51.954;7.998;2023-02-18T16:49:15;5.37;;;3.43;;
15110;SDS011;7656;51.954;7.998;2023-02-18T16:53:37;6.67;;;3.00;;
15110;SDS011;7656;51.954;7.998;2023-02-18T16:57:59;7.60;;;3.23;;
15110;SDS011;7656;51.954;7.998;2023-02-18T17:02:20;4.20;;;3.10;;
15110;SDS011;7656;51.954;7.998;2023-02-18T17:06:42;4.90;;;3.53;;
15110;SDS011;7656;51.954;7.998;2023-02-18T17:11:04;5.07;;;3.60;;
15110;SDS011;7656;51.954;7.998;2023-02-18T17:15:28;5.47;;;3.07;;
15110;SDS011;7656;51.954;7.998;2023-02-18T17:19:52;8.97;;;3.60;;
15110;SDS011;7656;51.954;7.998;2023-02-18T17:24:14;9.43;;;3.80;;
15110;SDS011;7656;51.954;7.998;2023-02-18T17:28:37;6.80;;;3.30;;
15110;SDS011;7656;51.954;7.998;2023-02-18T17:32:58;7.50;;;3.93;;
15110;SDS011;7656;51.954;7.998;2023-02-18T17:37:21;8.03;;;4.00;;
15110;SDS011;7656;51.954;7.998;2023-02-18T17:41:42;4.70;;;3.57;;
15110;SDS011;7656;51.954;7.998;2023-02-18T17:46:04;8.63;;;4.00;;
15110;SDS011;7656;51.954;7.998;2023-02-18T17:50:26;8.07;;;3.80;;
15110;SDS011;7656;51.954;7.998;2023-02-18T17:54:48;7.27;;;3.40;;
15110;SDS011;7656;51.954;7.998;2023-02-18T17:59:09;6.53;;;3.73;;
15110;SDS011;7656;51.954;7.998;2023-02-18T18:03:31;7.73;;;3.97;;
15110;SDS011;7656;51.954;7.998;2023-02-18T18:07:52;8.13;;;3.63;;
15110;SDS011;7656;51.954;7.998;2023-02-18T18:12:15;9.20;;;3.43;;
15110;SDS011;7656;51.954;7.998;2023-02-18T18:16:36;4.63;;;3.37;;
15110;SDS011;7656;51.954;7.998;2023-02-18T18:20:58;7.27;;;4.00;;
15110;SDS011;7656;51.954;7.998;2023-02-18T18:29:50;5.60;;;4.13;;
15110;SDS011;7656;51.954;7.998;2023-02-18T18:34:11;8.10;;;4.37;;
15110;SDS011;7656;51.954;7.998;2023-02-18T18:38:36;7.30;;;3.93;;
15110;SDS011;7656;51.954;7.998;2023-02-18T18:42:57;5.87;;;3.67;;
15110;SDS011;7656;51.954;7.998;2023-02-18T18:47:20;7.20;;;4.03;;
15110;SDS011;7656;51.954;7.998;2023-02-18T18:51:41;6.13;;;4.30;;
15110;SDS011;7656;51.954;7.998;2023-02-18T18:56:06;6.00;;;3.87;;
15110;SDS011;7656;51.954;7.998;2023-02-18T19:00:32;7.10;;;4.60;;
15110;SDS011;7656;51.954;7.998;2023-02-18T19:04:56;7.13;;;3.60;;
15110;SDS011;7656;51.954;7.998;2023-02-18T19:09:17;4.70;;;3.83;;
15110;SDS011;7656;51.954;7.998;2023-02-18T19:13:38;7.80;;;4.37;;
15110;SDS011;7656;51.954;7.998;2023-02-18T19:18:00;5.90;;;4.13;;
15110;SDS011;7656;51.954;7.998;2023-02-18T19:22:22;8.40;;;3.53;;
15110;SDS011;7656;51.954;7.998;2023-02-18T19:26:43;4.93;;;3.40;;
15110;SDS011;7656;51.954;7.998;2023-02-18T19:31:08;7.63;;;4.73;;
15110;SDS011;7656;51.954;7.998;2023-02-18T19:35:29;5.30;;;3.83;;
15110;SDS011;7656;51.954;7.998;2023-02-18T19:39:51;8.03;;;4.87;;
15110;SDS011;7656;51.954;7.998;2023-02-18T19:44:12;9.40;;;4.97;;
15110;SDS011;7656;51.954;7.998;2023-02-18T19:48:33;9.10;;;4.40;;
15110;SDS011;7656;51.954;7.998;2023-02-18T19:52:54;9.03;;;5.57;;
15110;SDS011;7656;51.954;7.998;2023-02-18T19:57:16;6.87;;;4.80;;
15110;SDS011;7656;51.954;7.998;2023-02-18T20:01:37;8.67;;;5.60;;
15110;SDS011;7656;51.954;7.998;2023-02-18T20:05:58;11.13;;;5.80;;
15110;SDS011;7656;51.954;7.998;2023-02-18T20:10:19;8.63;;;5.40;;
15110;SDS011;7656;51.954;7.998;2023-02-18T20:14:41;9.40;;;5.40;;
15110;SDS011;7656;51.954;7.998;2023-02-18T20:19:03;10.70;;;5.80;;
15110;SDS011;7656;51.954;7.998;2023-02-18T20:23:24;13.37;;;6.20;;
15110;SDS011;7656;51.954;7.998;2023-02-18T20:27:45;8.70;;;5.70;;
15110;SDS011;7656;51.954;7.998;2023-02-18T20:32:06;12.83;;;5.50;;
15110;SDS011;7656;51.954;7.998;2023-02-18T20:36:28;9.17;;;6.07;;
15110;SDS011;7656;51.954;7.998;2023-02-18T20:40:49;11.90;;;6.67;;
15110;SDS011;7656;51.954;7.998;2023-02-18T20:45:10;9.17;;;6.00;;
15110;SDS011;7656;51.954;7.998;2023-02-18T20:49:31;11.30;;;7.10;;
15110;SDS011;7656;51.954;7.998;2023-02-18T20:53:54;10.83;;;6.20;;
15110;SDS011;7656;51.954;7.998;2023-02-18T20:58:15;10.57;;;6.03;;
15110;SDS011;7656;51.954;7.998;2023-02-18T21:02:36;9.83;;;6.17;;
15110;SDS011;7656;51.954;7.998;2023-02-18T21:06:57;9.43;;;5.73;;
15110;SDS011;7656;51.954;7.998;2023-02-18T21:11:20;9.97;;;6.27;;
15110;SDS011;7656;51.954;7.998;2023-02-18T21:15:44;10.67;;;6.77;;
15110;SDS011;7656;51.954;7.998;2023-02-18T21:20:06;10.20;;;6.23;;
15110;SDS011;7656;51.954;7.998;2023-02-18T21:24:27;11.67;;;6.50;;
15110;SDS011;7656;51.954;7.998;2023-02-18T21:28:49;10.00;;;6.70;;
15110;SDS011;7656;51.954;7.998;2023-02-18T21:33:13;11.37;;;6.57;;
15110;SDS011;7656;51.954;7.998;2023-02-18T21:37:34;12.53;;;6.70;;
15110;SDS011;7656;51.954;7.998;2023-02-18T21:41:55;12.60;;;7.03;;
15110;SDS011;7656;51.954;7.998;2023-02-18T21:46:29;12.33;;;7.43;;
15110;SDS011;7656;51.954;7.998;2023-02-18T21:50:52;11.30;;;6.80;;
15110;SDS011;7656;51.954;7.998;2023-02-18T21:55:14;12.17;;;7.13;;
15110;SDS011;7656;51.954;7.998;2023-02-18T21:59:35;14.80;;;6.87;;
15110;SDS011;7656;51.954;7.998;2023-02-18T22:03:57;12.63;;;6.57;;
15110;SDS011;7656;51.954;7.998;2023-02-18T22:08:19;11.63;;;6.67;;
15110;SDS011;7656;51.954;7.998;2023-02-18T22:12:40;12.43;;;6.30;;
15110;SDS011;7656;51.954;7.998;2023-02-18T22:17:01;12.27;;;6.70;;
15110;SDS011;7656;51.954;7.998;2023-02-18T22:21:23;11.23;;;5.60;;
15110;SDS011;7656;51.954;7.998;2023-02-18T22:25:45;10.70;;;5.60;;
15110;SDS011;7656;51.954;7.998;2023-02-18T22:30:08;9.27;;;6.20;;
15110;SDS011;7656;51.954;7.998;2023-02-18T22:34:30;11.77;;;6.47;;
15110;SDS011;7656;51.954;7.998;2023-02-18T22:38:51;13.23;;;7.50;;
15110;SDS011;7656;51.954;7.998;2023-02-18T22:43:13;9.70;;;6.70;;
15110;SDS011;7656;51.954;7.998;2023-02-18T22:47:34;10.70;;;7.23;;
15110;SDS011;7656;51.954;7.998;2023-02-18T22:51:55;10.17;;;6.83;;
15110;SDS011;7656;51.954;7.998;2023-02-18T22:56:17;13.20;;;6.90;;
15110;SDS011;7656;51.954;7.998;2023-02-18T23:00:40;10.47;;;7.33;;
15110;SDS011;7656;51.954;7.998;2023-02-18T23:05:01;9.70;;;7.33;;
15110;SDS011;7656;51.954;7.998;2023-02-18T23:09:22;13.60;;;8.67;;
15110;SDS011;7656;51.954;7.998;2023-02-18T23:13:44;13.17;;;7.77;;
15110;SDS011;7656;51.954;7.998;2023-02-18T23:18:25;8.70;;;5.63;;
15110;SDS011;7656;51.954;7.998;2023-02-18T23:22:47;8.10;;;4.80;;
15110;SDS011;7656;51.954;7.998;2023-02-18T23:27:09;7.97;;;4.83;;
15110;SDS011;7656;51.954;7.998;2023-02-18T23:31:33;6.23;;;4.10;;
15110;SDS011;7656;51.954;7.998;2023-02-18T23:35:56;3.83;;;2.93;;
15110;SDS011;7656;51.954;7.998;2023-02-18T23:40:32;6.70;;;2.87;;
15110;SDS011;7656;51.954;7.998;2023-02-18T23:44:54;2.77;;;2.10;;
15110;SDS011;7656;51.954;7.998;2023-02-18T23:49:16;3.83;;;2.67;;
15110;SDS011;7656;51.954;7.998;2023-02-18T23:53:45;2.77;;;2.50;;
15110;SDS011;7656;51.954;7.998;2023-02-18T23:58:06;3.80;;;2.63;;
